Letzte 24h
Datum & Zeit Temp. Luft-
feuchte
Wind Nieder-
schlag
Luftdruck Tendenz
IN OUT IN OUT Richtung Min. Max.
2020.08.07 13:56 29.6 °C 29.5 °C 59% 52% N 359 ° 1 km/h 6 km/h 0.0 mm 1024.50 hPa langsam fallend
14:56 30.7 °C 30.3 °C 57% 46% W 280 ° 0 km/h 6 km/h 0.0 mm 1024.40 hPa langsam fallend
15:56 31.7 °C 30.5 °C 55% 40% NNW 347 ° 2 km/h 11 km/h 0.0 mm 1024.20 hPa langsam fallend
16:56 32.1 °C 31.3 °C 50% 33% NNW 332 ° 1 km/h 9 km/h 0.0 mm 1023.90 hPa langsam fallend
17:56 32.2 °C 32.7 °C 50% 30% NW 309 ° 0 km/h 4 km/h 0.0 mm 1023.70 hPa langsam fallend
18:56 31.9 °C 31.6 °C 51% 35% W 270 ° 0 km/h 3 km/h 0.0 mm 1023.60 hPa langsam fallend
19:56 30.4 °C 29.3 °C 45% 42% S 180 ° 0 km/h 1 km/h 0.0 mm 1023.30 hPa langsam fallend
20:56 28.6 °C 23.0 °C 53% 75% S 180 ° 0 km/h 3 km/h 0.0 mm 1023.60 hPa langsam fallend
21:56 27.1 °C 21.6 °C 53% 77% S 180 ° 0 km/h 3 km/h 0.0 mm 1023.90 hPa langsam steigend
22:56 26.2 °C 20.6 °C 55% 82% S 180 ° 0 km/h 5 km/h 0.0 mm 1024.00 hPa langsam steigend
23:56 25.6 °C 20.7 °C 56% 81% S 180 ° 0 km/h 3 km/h 0.0 mm 1024.10 hPa langsam steigend
2020.08.08 00:56 24.9 °C 19.5 °C 57% 85% S 180 ° 0 km/h 1 km/h 0.0 mm 1024.10 hPa langsam steigend
01:56 24.3 °C 19.3 °C 57% 84% S 180 ° 0 km/h 1 km/h 0.0 mm 1024.00 hPa gleichbleibend
02:56 23.6 °C 18.8 °C 58% 86% S 180 ° 0 km/h 3 km/h 0.0 mm 1024.00 hPa gleichbleibend
03:56 23.1 °C 18.5 °C 58% 86% S 180 ° 0 km/h 3 km/h 0.0 mm 1024.10 hPa gleichbleibend
04:56 22.8 °C 17.5 °C 58% 87% S 180 ° 0 km/h 3 km/h 0.0 mm 1024.10 hPa langsam steigend
05:56 22.4 °C 18.0 °C 58% 88% S 180 ° 0 km/h 1 km/h 0.0 mm 1024.20 hPa langsam steigend
06:56 22.2 °C 21.0 °C 58% 82% S 180 ° 0 km/h 1 km/h 0.0 mm 1024.60 hPa langsam steigend
07:56 22.6 °C 24.6 °C 59% 65% S 180 ° 0 km/h 1 km/h 0.0 mm 1024.80 hPa langsam steigend
08:56 24.1 °C 25.0 °C 62% 61% NW 315 ° 0 km/h 4 km/h 0.0 mm 1024.80 hPa langsam steigend
09:56 25.8 °C 26.7 °C 62% 57% W 270 ° 1 km/h 6 km/h 0.0 mm 1024.70 hPa langsam steigend
10:56 27.2 °C 26.8 °C 60% 57% WNW 295 ° 1 km/h 6 km/h 0.0 mm 1024.60 hPa langsam fallend
11:56 29.1 °C 29.0 °C 57% 49% WNW 286 ° 1 km/h 6 km/h 0.0 mm 1024.50 hPa langsam fallend
12:56 30.5 °C 29.5 °C 53% 50% WNW 302 ° 2 km/h 9 km/h 0.0 mm 1024.20 hPa langsam fallend

 

Verlauf: letzte 24h
WIND   Windrose
(Klicke ins Bild, um den Hintergrund abzuschalten)
WIND   Windverkauf 2.5h
TEMP   Temperatur 2.5h
Druck   Luftdruck 2.5h
Regen   Luftdruck 2.5h